createdAt,value
2023-08-24T00:27:23.298Z,1017.5
2023-08-24T00:56:27.381Z,1017.2
2023-08-24T01:25:35.347Z,1017.1
2023-08-24T01:54:27.520Z,1017.33
2023-08-24T02:23:34.217Z,1017.54
2023-08-24T02:52:12.858Z,1016.68
2023-08-24T03:21:31.144Z,1016.24
2023-08-24T03:50:40.729Z,1015.91
2023-08-24T04:20:02.713Z,1015.89
2023-08-24T04:48:38.446Z,1016.05
2023-08-24T05:17:52.873Z,1015.99
2023-08-24T05:47:00.163Z,1016.25
2023-08-24T06:16:01.861Z,1016.92
2023-08-24T06:44:34.847Z,1016.84
2023-08-24T07:13:59.965Z,1016.41
2023-08-24T07:43:15.235Z,1016.65
2023-08-24T08:12:24.897Z,1016.76
2023-08-24T08:41:30.478Z,1016.7
2023-08-24T09:10:49.748Z,1016.28
2023-08-24T09:40:00.843Z,1015.65
2023-08-24T10:09:13.714Z,1015.12
2023-08-24T10:38:24.147Z,1014.74
2023-08-24T11:07:34.514Z,1014.51
2023-08-24T11:36:46.144Z,1014.08
2023-08-24T12:05:48.694Z,1013.89
2023-08-24T12:34:55.459Z,1013.27
2023-08-24T13:03:59.273Z,1012.7
2023-08-24T13:32:55.716Z,1012.61
2023-08-24T14:01:31.989Z,1012.94
2023-08-24T14:30:27.544Z,1013.13
2023-08-24T14:58:50.549Z,1012.94
2023-08-24T15:28:02.706Z,1012.79
2023-08-24T15:57:18.284Z,1012.3
2023-08-24T16:26:18.429Z,1013.05
2023-08-24T16:55:24.079Z,1013.23
2023-08-24T17:24:20.586Z,1014.03
2023-08-24T17:53:22.159Z,1015.05
2023-08-24T18:22:14.255Z,1016.02
2023-08-24T18:50:53.081Z,1014.89
2023-08-24T19:19:58.497Z,1012.41
2023-08-24T19:49:15.578Z,1013.51
2023-08-24T20:18:10.585Z,1013.11
2023-08-24T20:47:04.061Z,1013
2023-08-24T21:16:05.610Z,1013.35
2023-08-24T21:45:14.881Z,1013.75
2023-08-24T22:14:20.135Z,1013.54
2023-08-24T22:42:40.313Z,1013.55
2023-08-24T23:11:06.886Z,1013.71
2023-08-24T23:39:24.062Z,1013.95
